createdAt,value
2017-08-08T00:01:37.365Z,86.40
2017-08-08T00:04:08.198Z,86.40
2017-08-08T00:06:39.336Z,86.50
2017-08-08T00:09:10.496Z,85.90
2017-08-08T00:11:41.421Z,85.50
2017-08-08T00:14:12.385Z,85.00
2017-08-08T00:16:43.318Z,83.70
2017-08-08T00:19:14.270Z,83.30
2017-08-08T00:21:45.212Z,83.30
2017-08-08T00:24:16.228Z,82.20
2017-08-08T00:26:47.074Z,82.90
2017-08-08T00:29:18.122Z,82.80
2017-08-08T00:31:49.086Z,81.20
2017-08-08T00:34:20.136Z,79.30
2017-08-08T00:36:51.115Z,79.00
2017-08-08T00:39:21.892Z,77.30
2017-08-08T00:41:52.646Z,76.10
2017-08-08T00:44:23.567Z,74.80
2017-08-08T00:46:54.498Z,73.70
2017-08-08T00:49:25.542Z,73.10
2017-08-08T00:51:56.412Z,73.70
2017-08-08T00:54:27.370Z,73.60
2017-08-08T00:56:59.005Z,73.80
2017-08-08T00:59:30.059Z,73.70
2017-08-08T01:02:00.861Z,74.20
2017-08-08T01:04:31.910Z,74.30
2017-08-08T01:07:02.743Z,74.00
2017-08-08T01:09:33.728Z,74.00
2017-08-08T01:12:04.722Z,73.60
2017-08-08T01:14:35.665Z,74.50
2017-08-08T01:17:06.467Z,74.30
2017-08-08T01:19:37.452Z,73.20
2017-08-08T01:22:08.282Z,70.70
2017-08-08T01:24:39.176Z,69.70
2017-08-08T01:27:10.071Z,68.40
2017-08-08T01:29:41.188Z,66.30
2017-08-08T01:32:12.254Z,64.30
2017-08-08T01:34:43.286Z,63.10
2017-08-08T01:37:14.436Z,63.60
2017-08-08T01:39:45.284Z,62.50
2017-08-08T01:42:16.311Z,59.80
2017-08-08T01:44:47.259Z,59.50
2017-08-08T01:47:18.199Z,58.50
2017-08-08T01:49:49.171Z,55.70
2017-08-08T01:52:20.226Z,54.00
2017-08-08T01:54:51.285Z,52.80
2017-08-08T01:57:22.232Z,50.90
2017-08-08T01:59:54.627Z,47.60
2017-08-08T02:02:25.591Z,46.10
2017-08-08T02:04:56.501Z,46.20
2017-08-08T02:07:27.450Z,46.40
2017-08-08T02:09:58.398Z,46.90
2017-08-08T02:12:29.335Z,47.20
2017-08-08T02:15:00.493Z,48.50
2017-08-08T02:17:31.316Z,49.60
2017-08-08T02:20:02.301Z,50.50
2017-08-08T02:22:33.010Z,51.30
2017-08-08T02:25:03.962Z,52.60
2017-08-08T02:27:34.881Z,52.90
2017-08-08T02:30:06.120Z,54.70
2017-08-08T02:32:37.167Z,54.60
2017-08-08T02:35:08.280Z,55.80
2017-08-08T02:37:40.018Z,56.90
2017-08-08T02:40:11.845Z,57.40
2017-08-08T02:42:42.745Z,57.30
2017-08-08T02:45:13.597Z,56.80
2017-08-08T02:47:44.352Z,57.50
2017-08-08T02:50:15.291Z,57.80
2017-08-08T02:52:46.364Z,57.80
2017-08-08T02:55:17.327Z,57.90
2017-08-08T02:57:48.324Z,57.90
2017-08-08T03:00:20.379Z,58.40
2017-08-08T03:02:51.216Z,57.20
2017-08-08T03:05:22.421Z,57.80
2017-08-08T03:07:54.345Z,57.80
2017-08-08T03:10:26.035Z,57.70
2017-08-08T03:12:57.748Z,59.20
2017-08-08T03:15:28.570Z,59.20
2017-08-08T03:18:00.726Z,59.90
2017-08-08T03:20:31.718Z,59.60
2017-08-08T03:23:02.430Z,59.20
2017-08-08T03:25:33.293Z,60.00
2017-08-08T03:28:04.079Z,59.50
2017-08-08T03:30:35.426Z,59.40
2017-08-08T03:33:07.327Z,59.30
2017-08-08T03:35:38.287Z,59.20
2017-08-08T03:38:09.200Z,58.20
2017-08-08T03:40:40.272Z,58.30
2017-08-08T03:43:11.405Z,58.10
2017-08-08T03:45:42.440Z,58.30
2017-08-08T03:48:13.440Z,57.50
2017-08-08T03:50:45.361Z,58.10
2017-08-08T03:53:16.274Z,58.10
2017-08-08T03:55:47.083Z,57.10
2017-08-08T03:58:18.019Z,55.80
2017-08-08T04:00:49.857Z,56.60
2017-08-08T04:03:20.664Z,56.60
2017-08-08T04:05:51.631Z,56.30
2017-08-08T04:08:22.462Z,56.70
2017-08-08T04:10:54.201Z,57.70
2017-08-08T04:13:25.397Z,57.60
2017-08-08T04:15:57.318Z,57.20
2017-08-08T04:18:28.227Z,57.50
2017-08-08T04:20:59.455Z,57.20
2017-08-08T04:23:31.249Z,56.90
2017-08-08T04:26:02.226Z,56.90
2017-08-08T04:28:33.174Z,57.10
2017-08-08T04:31:04.495Z,56.10
2017-08-08T04:33:36.614Z,55.30
2017-08-08T04:36:07.508Z,55.60
2017-08-08T04:38:38.438Z,55.70
2017-08-08T04:41:09.517Z,56.90
2017-08-08T04:43:41.354Z,57.00
2017-08-08T04:46:13.611Z,57.00
2017-08-08T04:48:44.543Z,57.00
2017-08-08T04:51:15.497Z,59.10
2017-08-08T04:53:46.433Z,60.90
2017-08-08T04:56:17.419Z,61.90
2017-08-08T04:58:49.135Z,61.00
2017-08-08T05:01:20.156Z,61.00
2017-08-08T05:03:51.221Z,62.10
2017-08-08T05:06:22.480Z,62.20
2017-08-08T05:08:53.486Z,62.00
2017-08-08T05:11:24.533Z,60.30
2017-08-08T05:13:55.407Z,59.90
2017-08-08T05:16:26.372Z,59.50
2017-08-08T05:18:58.177Z,60.20
2017-08-08T05:21:29.233Z,60.20
2017-08-08T05:24:00.182Z,61.00
2017-08-08T05:26:31.656Z,61.70
2017-08-08T05:29:02.463Z,61.60
2017-08-08T05:31:33.602Z,62.30
2017-08-08T05:34:04.509Z,61.70
2017-08-08T05:36:35.656Z,60.40
2017-08-08T05:39:06.733Z,59.50
2017-08-08T05:41:37.607Z,59.70
2017-08-08T05:44:08.537Z,60.90
2017-08-08T05:46:39.371Z,60.10
2017-08-08T05:49:10.310Z,60.60
2017-08-08T05:51:41.335Z,60.10
2017-08-08T05:54:12.268Z,60.00
2017-08-08T05:56:43.342Z,59.70
2017-08-08T05:59:14.504Z,58.20
2017-08-08T06:01:46.261Z,56.80
2017-08-08T06:04:17.285Z,56.80
2017-08-08T06:06:48.378Z,56.30
2017-08-08T06:09:20.171Z,59.30
2017-08-08T06:11:51.135Z,59.30
2017-08-08T06:14:22.078Z,60.10
2017-08-08T06:16:53.139Z,58.80
2017-08-08T06:19:24.849Z,60.00
2017-08-08T06:21:55.799Z,59.70
2017-08-08T06:24:26.849Z,59.60
2017-08-08T06:26:57.772Z,60.40
2017-08-08T06:29:28.627Z,59.30
2017-08-08T06:31:59.486Z,60.00
2017-08-08T06:34:30.682Z,60.80
2017-08-08T06:37:01.577Z,60.30
2017-08-08T06:39:32.490Z,60.20
2017-08-08T06:42:03.274Z,60.50
2017-08-08T06:44:34.178Z,59.60
2017-08-08T06:47:05.035Z,60.40
2017-08-08T06:49:36.651Z,60.40
2017-08-08T06:52:07.619Z,61.00
2017-08-08T06:54:38.470Z,60.70
2017-08-08T06:57:09.475Z,61.30
2017-08-08T06:59:40.482Z,62.70
2017-08-08T07:02:11.566Z,62.90
2017-08-08T07:04:42.524Z,63.60
2017-08-08T07:07:13.568Z,63.70
2017-08-08T07:09:49.710Z,64.60
2017-08-08T07:12:20.749Z,62.60
2017-08-08T07:14:52.562Z,62.20
2017-08-08T07:17:24.363Z,60.90
2017-08-08T07:19:55.312Z,60.80
2017-08-08T07:22:26.379Z,59.40
2017-08-08T07:24:57.393Z,58.00
2017-08-08T07:27:28.261Z,58.00
2017-08-08T07:29:59.286Z,56.70
2017-08-08T07:32:30.365Z,56.30
2017-08-08T07:35:02.183Z,55.50
2017-08-08T07:37:33.045Z,54.90
2017-08-08T07:40:03.939Z,55.20
2017-08-08T07:42:37.821Z,54.40
2017-08-08T07:45:09.686Z,53.50
2017-08-08T07:47:44.564Z,53.20
2017-08-08T07:50:16.081Z,53.20
2017-08-08T07:52:49.483Z,53.40
2017-08-08T07:55:23.743Z,53.20
2017-08-08T07:57:55.588Z,53.20
2017-08-08T08:00:28.813Z,52.50
2017-08-08T08:03:00.667Z,51.80
2017-08-08T08:05:31.609Z,51.80
2017-08-08T08:08:02.642Z,54.70
2017-08-08T08:10:33.568Z,55.00
2017-08-08T08:13:04.434Z,54.90
2017-08-08T08:15:38.164Z,55.50
2017-08-08T08:18:09.803Z,55.50
2017-08-08T08:20:40.693Z,54.90
2017-08-08T08:23:11.660Z,55.90
2017-08-08T08:25:42.616Z,55.60
2017-08-08T08:28:13.564Z,55.10
2017-08-08T08:30:44.291Z,55.10
2017-08-08T08:33:15.550Z,55.20
2017-08-08T08:35:46.484Z,55.40
2017-08-08T08:38:17.407Z,55.10
2017-08-08T08:40:50.897Z,55.50
2017-08-08T08:43:23.674Z,55.40
2017-08-08T08:45:54.641Z,56.00
2017-08-08T08:48:25.591Z,56.70
2017-08-08T08:50:56.553Z,57.00
2017-08-08T08:53:27.515Z,57.10
2017-08-08T08:55:59.002Z,58.10
2017-08-08T08:58:29.897Z,58.00
2017-08-08T09:01:01.594Z,59.30
2017-08-08T09:03:32.493Z,59.30
2017-08-08T09:06:04.190Z,60.70
2017-08-08T09:08:35.159Z,60.70
2017-08-08T09:11:06.197Z,60.60
2017-08-08T09:13:37.043Z,61.10
2017-08-08T09:16:07.882Z,62.00
2017-08-08T09:18:38.868Z,63.10
2017-08-08T09:21:09.846Z,63.20
2017-08-08T09:23:40.683Z,62.00
2017-08-08T09:26:11.703Z,62.60
2017-08-08T09:28:42.475Z,62.50
2017-08-08T09:31:13.412Z,62.80
2017-08-08T09:33:44.498Z,63.20
2017-08-08T09:36:16.207Z,64.70
2017-08-08T09:38:47.189Z,64.70
2017-08-08T09:41:18.119Z,64.80
2017-08-08T09:43:49.193Z,66.00
2017-08-08T09:46:20.786Z,65.70
2017-08-08T09:48:51.785Z,65.60
2017-08-08T09:51:23.516Z,67.00
2017-08-08T09:53:54.447Z,66.90
2017-08-08T09:56:25.279Z,66.90
2017-08-08T09:58:56.244Z,66.60
2017-08-08T10:01:27.123Z,67.10
2017-08-08T10:03:58.127Z,67.30
2017-08-08T10:06:29.031Z,67.10
2017-08-08T10:08:59.893Z,67.70
2017-08-08T10:11:30.794Z,67.80
2017-08-08T10:14:01.811Z,67.20
2017-08-08T10:16:33.423Z,69.00
2017-08-08T10:19:04.483Z,68.90
2017-08-08T10:21:35.508Z,69.20
2017-08-08T10:24:06.439Z,69.80
2017-08-08T10:26:37.584Z,68.90
2017-08-08T10:29:08.575Z,68.90
2017-08-08T10:31:39.679Z,68.10
2017-08-08T10:34:11.033Z,68.50
2017-08-08T10:36:42.086Z,68.50
2017-08-08T10:39:12.915Z,70.80
2017-08-08T10:41:43.827Z,71.40
2017-08-08T10:44:14.711Z,72.00
2017-08-08T10:46:45.725Z,71.70
2017-08-08T10:49:16.790Z,71.00
2017-08-08T10:51:47.702Z,70.70
2017-08-08T10:54:18.715Z,70.90
2017-08-08T10:56:49.702Z,71.50
2017-08-08T10:59:20.719Z,72.40
2017-08-08T11:01:51.805Z,73.40
2017-08-08T11:04:22.683Z,73.50
2017-08-08T11:06:53.690Z,72.30
2017-08-08T11:09:24.719Z,70.60
2017-08-08T11:11:55.726Z,71.10
2017-08-08T11:14:26.684Z,70.60
2017-08-08T11:16:57.603Z,70.30
2017-08-08T11:19:28.461Z,71.20
2017-08-08T11:21:59.542Z,71.60
2017-08-08T11:24:32.150Z,67.70
2017-08-08T11:27:03.056Z,67.70
2017-08-08T11:29:33.951Z,67.80
2017-08-08T11:32:04.710Z,67.30
2017-08-08T11:34:35.614Z,67.50
2017-08-08T11:37:06.438Z,67.90
2017-08-08T11:39:37.449Z,68.70
2017-08-08T11:42:08.519Z,69.10
2017-08-08T11:44:40.307Z,69.40
2017-08-08T11:47:11.225Z,69.40
2017-08-08T11:49:42.210Z,69.70
2017-08-08T11:52:13.038Z,69.60
2017-08-08T11:54:43.923Z,69.90
2017-08-08T11:57:14.730Z,69.30
2017-08-08T11:59:46.274Z,70.00
2017-08-08T12:02:17.203Z,69.80
2017-08-08T12:04:47.995Z,70.10
2017-08-08T12:07:19.734Z,71.10
2017-08-08T12:09:51.405Z,70.90
2017-08-08T12:12:22.138Z,71.30
2017-08-08T12:14:53.078Z,71.10
2017-08-08T12:17:23.889Z,71.00
2017-08-08T12:19:54.907Z,71.30
2017-08-08T12:22:25.869Z,71.80
2017-08-08T12:24:56.787Z,72.20
2017-08-08T12:27:27.661Z,72.80
2017-08-08T12:29:58.586Z,73.70
2017-08-08T12:32:29.407Z,72.80
2017-08-08T12:35:00.369Z,72.60
2017-08-08T12:37:31.162Z,72.30
2017-08-08T12:40:02.059Z,72.60
2017-08-08T12:42:33.051Z,72.30
2017-08-08T12:45:03.816Z,73.50
2017-08-08T12:47:34.739Z,72.90
2017-08-08T12:50:05.820Z,73.60
2017-08-08T12:52:36.838Z,73.20
2017-08-08T12:55:07.703Z,73.00
2017-08-08T12:57:38.749Z,73.10
2017-08-08T13:00:09.571Z,73.60
2017-08-08T13:02:40.537Z,73.10
2017-08-08T13:05:11.390Z,72.50
2017-08-08T13:07:43.089Z,72.00
2017-08-08T13:10:14.123Z,72.00
2017-08-08T13:12:44.875Z,71.90
2017-08-08T13:15:15.879Z,72.30
2017-08-08T13:17:46.766Z,72.70
2017-08-08T13:20:17.755Z,72.70
2017-08-08T13:22:48.735Z,73.10
2017-08-08T13:25:19.648Z,73.80
2017-08-08T13:27:50.647Z,74.10
2017-08-08T13:30:21.527Z,74.60
2017-08-08T13:32:53.454Z,75.00
2017-08-08T13:35:24.607Z,75.00
2017-08-08T13:37:55.505Z,75.10
2017-08-08T13:40:26.452Z,75.70
2017-08-08T13:42:57.489Z,76.00
2017-08-08T13:45:28.372Z,76.30
2017-08-08T13:47:59.443Z,76.60
2017-08-08T13:50:30.326Z,77.40
2017-08-08T13:53:01.288Z,77.70
2017-08-08T13:55:32.354Z,78.00
2017-08-08T13:58:03.981Z,78.20
2017-08-08T14:00:34.903Z,78.20
2017-08-08T14:03:05.931Z,78.30
2017-08-08T14:05:36.706Z,78.20
2017-08-08T14:08:08.354Z,78.20
2017-08-08T14:10:39.309Z,78.00
2017-08-08T14:13:10.121Z,78.20
2017-08-08T14:15:40.967Z,78.40
2017-08-08T14:18:12.035Z,78.60
2017-08-08T14:20:43.775Z,78.10
2017-08-08T14:23:14.820Z,78.10
2017-08-08T14:25:45.866Z,78.10
2017-08-08T14:28:16.784Z,78.00
2017-08-08T14:30:47.951Z,78.20
2017-08-08T14:33:18.991Z,78.50
2017-08-08T14:35:50.283Z,78.80
2017-08-08T14:38:21.248Z,78.80
2017-08-08T14:40:52.159Z,78.60
2017-08-08T14:43:23.885Z,78.80
2017-08-08T14:45:54.803Z,78.80
2017-08-08T14:48:26.627Z,78.50
2017-08-08T14:50:57.506Z,78.50
2017-08-08T14:53:28.973Z,78.30
2017-08-08T14:55:59.694Z,78.30
2017-08-08T14:58:30.531Z,78.10
2017-08-08T15:01:01.582Z,78.20
2017-08-08T15:03:32.390Z,78.20
2017-08-08T15:06:03.358Z,78.10
2017-08-08T15:08:34.822Z,78.10
2017-08-08T15:11:05.736Z,78.20
2017-08-08T15:13:36.685Z,77.50
2017-08-08T15:16:07.579Z,77.50
2017-08-08T15:18:38.359Z,77.40
2017-08-08T15:21:09.184Z,77.40
2017-08-08T15:23:40.119Z,76.70
2017-08-08T15:26:10.923Z,76.80
2017-08-08T15:28:42.745Z,78.20
2017-08-08T15:31:15.759Z,78.10
2017-08-08T15:33:46.782Z,78.30
2017-08-08T15:36:17.815Z,78.30
2017-08-08T15:38:48.754Z,78.50
2017-08-08T15:41:19.590Z,78.60
2017-08-08T15:43:50.534Z,79.50
2017-08-08T15:46:21.429Z,81.10
2017-08-08T15:48:52.203Z,81.50
2017-08-08T15:51:23.402Z,81.70
2017-08-08T15:53:54.163Z,81.40
2017-08-08T15:56:25.133Z,81.00
2017-08-08T15:58:56.082Z,80.20
2017-08-08T16:01:26.920Z,79.60
2017-08-08T16:03:57.864Z,79.30
2017-08-08T16:06:28.800Z,78.30
2017-08-08T16:08:59.841Z,77.90
2017-08-08T16:11:31.690Z,77.80
2017-08-08T16:14:03.140Z,77.30
2017-08-08T16:16:34.238Z,77.30
2017-08-08T16:19:06.735Z,77.50
2017-08-08T16:21:37.612Z,77.40
2017-08-08T16:24:08.573Z,77.80
2017-08-08T16:26:39.624Z,77.50
2017-08-08T16:29:10.522Z,77.90
2017-08-08T16:31:41.373Z,76.70
2017-08-08T16:34:12.277Z,76.90
2017-08-08T16:36:43.264Z,76.40
2017-08-08T16:39:14.342Z,76.30
2017-08-08T16:41:46.157Z,76.50
2017-08-08T16:44:17.069Z,76.30
2017-08-08T16:46:47.875Z,76.80
2017-08-08T16:49:19.701Z,76.40
2017-08-08T16:51:50.741Z,76.70
2017-08-08T16:54:21.695Z,77.00
2017-08-08T16:56:52.658Z,77.00
2017-08-08T16:59:24.448Z,77.00
2017-08-08T17:01:56.138Z,77.00
2017-08-08T17:04:27.085Z,76.90
2017-08-08T17:06:58.945Z,76.60
2017-08-08T17:09:29.974Z,77.10
2017-08-08T17:12:00.745Z,76.30
2017-08-08T17:14:31.527Z,76.50
2017-08-08T17:17:02.332Z,76.60
2017-08-08T17:19:33.459Z,76.80
2017-08-08T17:22:04.278Z,76.90
2017-08-08T17:24:35.930Z,77.10
2017-08-08T17:27:07.023Z,77.10
2017-08-08T17:29:38.832Z,77.20
2017-08-08T17:32:09.728Z,77.10
2017-08-08T17:34:41.435Z,76.60
2017-08-08T17:37:12.702Z,76.50
2017-08-08T17:39:43.620Z,76.30
2017-08-08T17:42:14.575Z,76.50
2017-08-08T17:44:45.379Z,76.90
2017-08-08T17:47:16.342Z,77.10
2017-08-08T17:49:47.349Z,77.30
2017-08-08T17:52:18.331Z,77.80
2017-08-08T17:54:49.287Z,78.40
2017-08-08T17:57:20.203Z,78.40
2017-08-08T17:59:51.237Z,78.10
2017-08-08T18:02:22.201Z,77.80
2017-08-08T18:04:53.123Z,77.50
2017-08-08T18:07:24.073Z,77.40
2017-08-08T18:09:55.027Z,77.60
2017-08-08T18:12:26.076Z,78.10
2017-08-08T18:14:57.102Z,78.70
2017-08-08T18:17:28.133Z,79.00
2017-08-08T18:19:59.394Z,79.50
2017-08-08T18:22:30.360Z,80.00
2017-08-08T18:25:01.372Z,80.00
2017-08-08T18:27:32.250Z,80.20
2017-08-08T18:30:03.244Z,80.40
2017-08-08T18:32:34.106Z,80.40
2017-08-08T18:35:04.958Z,80.30
2017-08-08T18:37:36.345Z,80.00
2017-08-08T18:40:09.025Z,79.80
2017-08-08T18:42:40.131Z,79.70
2017-08-08T18:45:11.503Z,80.20
2017-08-08T18:47:43.211Z,80.50
2017-08-08T18:50:14.659Z,80.50
2017-08-08T18:52:51.702Z,80.40
2017-08-08T18:55:23.521Z,80.90
2017-08-08T18:57:57.249Z,81.00
2017-08-08T19:00:30.476Z,81.10
2017-08-08T19:03:18.850Z,81.00
2017-08-08T19:05:51.941Z,81.20
2017-08-08T19:08:23.097Z,81.20
2017-08-08T19:11:00.181Z,81.10
2017-08-08T19:13:31.763Z,80.70
2017-08-08T19:16:03.565Z,80.20
2017-08-08T19:18:36.965Z,79.90
2017-08-08T19:21:10.041Z,80.20
2017-08-08T19:23:42.285Z,80.20
2017-08-08T19:26:13.272Z,80.20
2017-08-08T19:28:44.252Z,80.50
2017-08-08T19:31:15.742Z,80.80
2017-08-08T19:33:47.930Z,80.80
2017-08-08T19:36:27.447Z,81.10
2017-08-08T19:38:58.474Z,81.10
2017-08-08T19:41:33.447Z,81.20
2017-08-08T19:44:04.447Z,81.30
2017-08-08T19:46:35.462Z,81.60
2017-08-08T19:49:06.375Z,81.80
2017-08-08T19:51:37.357Z,81.60
2017-08-08T19:54:10.915Z,81.20
2017-08-08T19:56:42.037Z,80.80
2017-08-08T19:59:14.886Z,80.30
2017-08-08T20:01:51.110Z,80.50
2017-08-08T20:04:22.036Z,80.90
2017-08-08T20:06:54.693Z,81.50
2017-08-08T20:09:26.033Z,81.50
2017-08-08T20:11:58.263Z,82.00
2017-08-08T20:14:34.551Z,82.10
2017-08-08T20:17:11.132Z,82.10
2017-08-08T20:19:42.190Z,82.40
2017-08-08T20:22:13.203Z,82.20
2017-08-08T20:24:44.464Z,82.30
2017-08-08T20:27:15.813Z,82.50
2017-08-08T20:29:46.878Z,82.80
2017-08-08T20:32:20.405Z,82.90
2017-08-08T20:34:54.945Z,82.60
2017-08-08T20:37:34.765Z,82.50
2017-08-08T20:40:06.275Z,82.20
2017-08-08T20:42:37.526Z,82.40
2017-08-08T20:45:08.726Z,82.60
2017-08-08T20:47:39.707Z,82.70
2017-08-08T20:50:15.845Z,83.30
2017-08-08T20:52:50.106Z,83.60
2017-08-08T20:55:22.234Z,83.70
2017-08-08T20:57:53.200Z,83.60
2017-08-08T21:00:30.285Z,83.60
2017-08-08T21:03:02.474Z,83.80
2017-08-08T21:05:33.482Z,83.50
2017-08-08T21:08:05.654Z,83.60
2017-08-08T21:10:38.319Z,83.80
2017-08-08T21:13:10.381Z,83.60
2017-08-08T21:15:46.944Z,82.10
2017-08-08T21:18:18.246Z,82.10
2017-08-08T21:20:51.298Z,82.20
2017-08-08T21:23:24.380Z,83.10
2017-08-08T21:25:58.803Z,83.00
2017-08-08T21:28:29.887Z,82.90
2017-08-08T21:31:01.070Z,83.20
2017-08-08T21:33:32.065Z,83.90
2017-08-08T21:36:03.126Z,83.00
2017-08-08T21:38:34.959Z,83.10
2017-08-08T21:41:08.271Z,83.30
2017-08-08T21:43:39.389Z,83.20
2017-08-08T21:46:11.552Z,83.00
2017-08-08T21:48:43.767Z,83.00
2017-08-08T21:51:15.664Z,83.00
2017-08-08T21:53:47.100Z,82.60
2017-08-08T21:56:19.087Z,83.00
2017-08-08T21:58:50.746Z,83.60
2017-08-08T22:01:21.578Z,83.20
2017-08-08T22:03:52.586Z,83.80
2017-08-08T22:06:23.632Z,84.10
2017-08-08T22:08:54.583Z,84.70
2017-08-08T22:11:25.648Z,84.60
2017-08-08T22:13:56.656Z,84.60
2017-08-08T22:16:27.725Z,84.00
2017-08-08T22:18:58.653Z,84.20
2017-08-08T22:21:29.538Z,84.00
2017-08-08T22:24:00.426Z,84.20
2017-08-08T22:26:31.270Z,84.40
2017-08-08T22:29:02.113Z,84.40
2017-08-08T22:31:33.199Z,84.50
2017-08-08T22:34:04.295Z,84.80
2017-08-08T22:36:35.331Z,85.00
2017-08-08T22:39:06.672Z,84.70
2017-08-08T22:41:38.218Z,85.20
2017-08-08T22:44:09.248Z,85.60
2017-08-08T22:46:40.227Z,85.50
2017-08-08T22:49:11.149Z,85.40
2017-08-08T22:51:42.022Z,85.70
2017-08-08T22:54:12.862Z,86.00
2017-08-08T22:56:43.817Z,85.70
2017-08-08T22:59:14.716Z,85.70
2017-08-08T23:01:45.659Z,85.50
2017-08-08T23:04:16.622Z,85.40
2017-08-08T23:06:48.524Z,85.20
2017-08-08T23:09:19.337Z,85.00
2017-08-08T23:11:50.231Z,85.20
2017-08-08T23:14:21.399Z,85.20
2017-08-08T23:16:52.339Z,85.20
2017-08-08T23:19:23.350Z,85.70
2017-08-08T23:21:54.311Z,85.50
2017-08-08T23:24:25.238Z,85.40
2017-08-08T23:26:56.347Z,85.70
2017-08-08T23:29:27.107Z,85.60
2017-08-08T23:31:58.422Z,85.20
2017-08-08T23:34:29.419Z,85.50
2017-08-08T23:37:00.586Z,85.50
2017-08-08T23:39:31.987Z,85.80
2017-08-08T23:42:02.797Z,85.40
2017-08-08T23:44:33.795Z,85.20
2017-08-08T23:47:04.644Z,85.00
2017-08-08T23:49:35.565Z,84.80
2017-08-08T23:52:06.423Z,84.40
2017-08-08T23:54:37.435Z,83.70
2017-08-08T23:57:08.281Z,83.50
2017-08-08T23:59:39.107Z,83.00
